Time;durP1;ratioP1;P1;durP2;ratioP2;P2;SDS_P1;SDS_P2;PMS_P1;PMS_P2;Temp;Humidity;BMP_temperature;BMP_pressure;BME280_temperature;BME280_humidity;BME280_pressure;Samples;Min_cycle;Max_cycle;Signal;HPM_P1;HPM_P2
2024/02/06 00:01:34;;;;;;;12.45;1.10;;;9.70;99.90;;;;;;4962256;29;20050;-79
2024/02/06 00:04:00;;;;;;;10.00;0.40;;;9.60;99.90;;;;;;4960688;29;20034;-81
2024/02/06 00:06:26;;;;;;;10.90;1.30;;;9.60;99.90;;;;;;4959768;29;20057;-79
2024/02/06 00:08:51;;;;;;;9.50;0.68;;;9.60;99.90;;;;;;4959286;28;20029;-78
2024/02/06 00:11:18;;;;;;;13.35;1.10;;;9.70;99.90;;;;;;4958555;29;20030;-81
2024/02/06 00:13:44;;;;;;;19.45;1.77;;;9.60;99.90;;;;;;4963716;29;20038;-81
2024/02/06 00:16:14;;;;;;;13.35;1.38;;;9.60;99.90;;;;;;4958073;28;20027;-81
2024/02/06 00:18:41;;;;;;;12.20;1.63;;;9.60;99.90;;;;;;4959508;29;20031;-79
2024/02/06 00:21:07;;;;;;;9.25;1.58;;;9.70;99.90;;;;;;4958264;29;20063;-81
2024/02/06 00:23:33;;;;;;;12.70;1.63;;;9.70;99.90;;;;;;4964589;29;20019;-81
2024/02/06 00:25:59;;;;;;;17.15;0.88;;;9.70;99.90;;;;;;4965467;29;20050;-81
2024/02/06 00:28:25;;;;;;;9.73;1.10;;;9.70;99.90;;;;;;4966274;29;20030;-81
2024/02/06 00:30:51;;;;;;;13.75;1.48;;;9.70;99.90;;;;;;4964375;29;20455;-80
2024/02/06 00:33:18;;;;;;;10.18;1.40;;;9.80;99.90;;;;;;4962931;29;20019;-81
2024/02/06 00:35:44;;;;;;;9.50;1.52;;;9.80;99.90;;;;;;4964051;29;20024;-81
2024/02/06 00:38:09;;;;;;;6.82;1.08;;;9.80;99.90;;;;;;4965212;29;20027;-80
2024/02/06 00:40:35;;;;;;;15.82;1.05;;;9.80;99.90;;;;;;4963095;29;20028;-80
2024/02/06 00:43:01;;;;;;;14.07;1.42;;;9.80;99.90;;;;;;4963589;28;20031;-81
2024/02/06 00:45:27;;;;;;;14.65;1.65;;;9.80;99.90;;;;;;4962743;29;20039;-80
2024/02/06 00:47:53;;;;;;;12.98;1.33;;;9.70;99.90;;;;;;4962893;29;20086;-80
2024/02/06 00:50:19;;;;;;;16.52;1.65;;;9.80;99.90;;;;;;4963170;29;20440;-80
2024/02/06 00:52:45;;;;;;;13.18;1.52;;;9.80;99.90;;;;;;4963676;29;20059;-80
2024/02/06 00:55:11;;;;;;;7.22;1.27;;;9.80;99.90;;;;;;4964196;29;20070;-80
2024/02/06 00:57:37;;;;;;;11.20;1.23;;;9.70;99.90;;;;;;4964154;29;20098;-81
2024/02/06 01:00:03;;;;;;;9.52;1.30;;;9.70;99.90;;;;;;4964305;29;20105;-80
2024/02/06 01:02:29;;;;;;;8.50;0.82;;;9.70;99.90;;;;;;4961386;29;20026;-79
2024/02/06 01:04:55;;;;;;;13.20;0.98;;;9.70;99.90;;;;;;4962535;29;20435;-81
2024/02/06 01:07:21;;;;;;;11.70;1.40;;;9.70;99.90;;;;;;4963768;29;20031;-78
2024/02/06 01:09:47;;;;;;;18.70;1.27;;;9.80;99.90;;;;;;4962423;28;20402;-81
2024/02/06 01:12:13;;;;;;;11.27;0.63;;;9.70;99.90;;;;;;4963780;29;20518;-80
2024/02/06 01:14:38;;;;;;;12.10;1.63;;;9.80;99.90;;;;;;4962463;29;20023;-80
2024/02/06 01:17:08;;;;;;;5.95;0.80;;;;;;;;;;4964120;29;20024;-80
2024/02/06 01:19:34;;;;;;;16.80;1.30;;;9.80;99.90;;;;;;4964268;28;20391;-81
2024/02/06 01:21:59;;;;;;;8.30;1.30;;;9.80;99.90;;;;;;4963335;29;20031;-81
2024/02/06 01:24:25;;;;;;;13.05;1.38;;;9.80;99.90;;;;;;4963523;29;20026;-80
2024/02/06 01:26:51;;;;;;;11.23;0.85;;;9.90;99.90;;;;;;4962100;28;20471;-80
2024/02/06 01:29:16;;;;;;;11.63;1.25;;;9.90;99.90;;;;;;4964150;29;20051;-80
2024/02/06 01:31:43;;;;;;;9.65;1.15;;;10.00;99.90;;;;;;4963077;29;20555;-81
2024/02/06 01:34:09;;;;;;;9.93;1.88;;;9.90;99.90;;;;;;4961758;29;20034;-80
2024/02/06 01:36:35;;;;;;;13.23;1.00;;;9.90;99.90;;;;;;4961526;29;20027;-80
2024/02/06 01:39:01;;;;;;;17.38;0.80;;;10.00;99.90;;;;;;4962838;28;20030;-80
2024/02/06 01:41:27;;;;;;;11.02;1.98;;;10.00;99.90;;;;;;4963257;29;20105;-80
2024/02/06 01:43:53;;;;;;;14.48;1.08;;;10.00;99.90;;;;;;4964128;29;20101;-81
2024/02/06 01:46:20;;;;;;;14.52;1.25;;;10.00;99.90;;;;;;4962579;29;20027;-81
2024/02/06 01:48:47;;;;;;;13.95;1.00;;;10.00;99.90;;;;;;4964708;29;20028;-80
2024/02/06 01:51:15;;;;;;;16.80;1.80;;;10.00;99.90;;;;;;4963946;28;20059;-80
2024/02/06 01:53:41;;;;;;;13.85;1.10;;;10.00;99.90;;;;;;4963512;29;20043;-81
2024/02/06 01:56:13;;;;;;;10.55;1.42;;;10.00;99.90;;;;;;4963813;29;20026;-82
2024/02/06 01:58:39;;;;;;;8.80;1.52;;;10.00;99.90;;;;;;4961808;29;20075;-81
2024/02/06 02:01:06;;;;;;;11.73;2.25;;;10.00;99.90;;;;;;4961214;29;20030;-81
2024/02/06 02:03:36;;;;;;;12.82;0.63;;;10.00;99.90;;;;;;4963408;29;20582;-80
2024/02/06 02:06:03;;;;;;;14.25;0.50;;;10.10;99.90;;;;;;4963398;29;20058;-81
2024/02/06 02:08:33;;;;;;;8.85;1.15;;;10.10;99.90;;;;;;4964156;29;20043;-81
2024/02/06 02:10:58;;;;;;;18.85;2.30;;;10.00;99.90;;;;;;4962269;29;20484;-80
2024/02/06 02:13:25;;;;;;;10.95;0.60;;;10.00;99.90;;;;;;4960254;28;20031;-81
2024/02/06 02:15:51;;;;;;;8.15;0.60;;;10.00;99.90;;;;;;4962176;29;20488;-81
2024/02/06 02:18:17;;;;;;;11.80;1.33;;;10.00;99.90;;;;;;4964625;29;20023;-81
2024/02/06 02:20:42;;;;;;;10.80;0.43;;;10.00;99.90;;;;;;4963449;29;20523;-80
2024/02/06 02:23:08;;;;;;;10.55;0.70;;;10.00;99.90;;;;;;4963968;29;20035;-81
2024/02/06 02:25:35;;;;;;;21.27;2.13;;;10.00;99.90;;;;;;4963817;29;20027;-80
2024/02/06 02:28:01;;;;;;;14.85;1.45;;;10.00;99.90;;;;;;4959542;29;20022;-79
2024/02/06 02:30:28;;;;;;;7.63;0.40;;;10.00;99.90;;;;;;4963183;29;20027;-81
2024/02/06 02:32:54;;;;;;;11.25;2.63;;;10.00;99.90;;;;;;4964499;29;20028;-81
2024/02/06 02:35:28;;;;;;;8.10;1.05;;;10.10;99.90;;;;;;4961825;29;20038;-80
2024/02/06 02:37:54;;;;;;;17.65;0.75;;;10.10;99.90;;;;;;4963094;29;20035;-81
2024/02/06 02:40:20;;;;;;;12.93;0.95;;;10.10;99.90;;;;;;4964346;28;20387;-80
2024/02/06 02:42:45;;;;;;;13.93;1.75;;;10.10;99.90;;;;;;4965719;29;20031;-80
2024/02/06 02:45:11;;;;;;;11.52;1.60;;;10.20;99.90;;;;;;4964776;29;20116;-80
2024/02/06 02:47:36;;;;;;;15.82;1.88;;;10.20;99.90;;;;;;4965884;29;20054;-79
2024/02/06 02:50:02;;;;;;;13.18;1.30;;;10.20;99.90;;;;;;4967377;29;20431;-79
2024/02/06 02:52:28;;;;;;;13.02;0.80;;;10.20;99.90;;;;;;4966851;29;20038;-79
2024/02/06 02:54:53;;;;;;;15.13;1.90;;;10.20;99.90;;;;;;4961518;29;20030;-78
2024/02/06 02:57:19;;;;;;;18.10;1.17;;;10.20;99.90;;;;;;4959903;29;20030;-81
2024/02/06 02:59:45;;;;;;;22.55;1.45;;;10.10;99.90;;;;;;4961306;29;20095;-78
2024/02/06 03:02:10;;;;;;;14.88;2.05;;;10.20;99.90;;;;;;4958950;29;20486;-78
2024/02/06 03:04:36;;;;;;;11.02;1.00;;;10.20;99.90;;;;;;4962221;29;20031;-81
2024/02/06 03:07:02;;;;;;;21.77;2.72;;;10.10;99.90;;;;;;4959761;28;20027;-78
2024/02/06 03:09:27;;;;;;;12.85;2.17;;;10.10;99.90;;;;;;4965000;29;20062;-81
2024/02/06 03:11:53;;;;;;;16.42;1.35;;;10.20;99.90;;;;;;4964533;29;20043;-80
2024/02/06 03:14:19;;;;;;;14.45;0.60;;;10.10;99.90;;;;;;4966709;29;20035;-79
2024/02/06 03:16:45;;;;;;;12.85;0.70;;;10.20;99.90;;;;;;4964615;29;20055;-79
2024/02/06 03:19:11;;;;;;;18.90;1.90;;;10.20;99.90;;;;;;4967151;29;20098;-80
2024/02/06 03:21:36;;;;;;;25.63;2.75;;;10.20;99.90;;;;;;4965438;29;20023;-79
2024/02/06 03:24:02;;;;;;;8.35;0.98;;;10.20;99.90;;;;;;4959797;29;20031;-78
2024/02/06 03:26:27;;;;;;;15.50;1.45;;;10.20;99.90;;;;;;4959705;29;20138;-78
2024/02/06 03:28:53;;;;;;;17.45;1.40;;;10.20;99.90;;;;;;4960435;28;20031;-78
2024/02/06 03:31:19;;;;;;;25.10;2.78;;;10.10;99.90;;;;;;4960273;29;20023;-79
2024/02/06 03:33:44;;;;;;;8.32;0.60;;;10.10;99.90;;;;;;4960343;29;20024;-78
2024/02/06 03:36:10;;;;;;;13.75;0.82;;;10.10;99.90;;;;;;4959681;29;20024;-79
2024/02/06 03:38:36;;;;;;;17.48;2.00;;;10.10;99.90;;;;;;4958688;29;20047;-79
2024/02/06 03:41:01;;;;;;;15.18;1.73;;;10.10;99.90;;;;;;4959468;29;20027;-79
2024/02/06 03:43:27;;;;;;;20.63;1.80;;;10.10;99.90;;;;;;4959881;29;20031;-79
2024/02/06 03:45:53;;;;;;;23.10;2.10;;;10.00;99.90;;;;;;4957936;29;20055;-79
2024/02/06 03:48:18;;;;;;;14.95;1.52;;;10.10;99.90;;;;;;4960804;29;20400;-79
2024/02/06 03:50:44;;;;;;;14.57;1.23;;;10.10;99.90;;;;;;4960750;28;20099;-79
2024/02/06 03:53:10;;;;;;;16.80;1.67;;;10.10;99.90;;;;;;4961262;29;20041;-77
2024/02/06 03:55:36;;;;;;;10.35;1.92;;;10.10;99.90;;;;;;4959967;29;20030;-79
2024/02/06 03:58:03;;;;;;;18.73;2.72;;;10.10;99.90;;;;;;4958991;29;20110;-78
2024/02/06 04:00:29;;;;;;;20.90;1.52;;;10.20;99.90;;;;;;4960030;29;20039;-78
2024/02/06 04:02:55;;;;;;;12.98;0.80;;;10.20;99.90;;;;;;4958774;29;20493;-78
2024/02/06 04:05:21;;;;;;;13.85;1.10;;;10.20;99.90;;;;;;4958019;29;20110;-78
2024/02/06 04:07:46;;;;;;;19.20;2.85;;;10.20;99.90;;;;;;4959612;29;20066;-79
2024/02/06 04:10:13;;;;;;;26.33;2.33;;;10.10;99.90;;;;;;4960025;29;20031;-79
2024/02/06 04:12:38;;;;;;;13.20;1.48;;;10.20;99.90;;;;;;4958090;29;20479;-79
2024/02/06 04:15:04;;;;;;;15.00;1.95;;;10.10;99.90;;;;;;4959313;29;20031;-80
2024/02/06 04:17:30;;;;;;;18.38;1.23;;;8.10;99.90;;;;;;4958232;29;20394;-79
2024/02/06 04:19:55;;;;;;;12.82;1.23;;;10.20;99.90;;;;;;4958291;29;20055;-80
2024/02/06 04:22:21;;;;;;;13.52;0.82;;;10.20;99.90;;;;;;4957982;28;20095;-79
2024/02/06 04:24:47;;;;;;;16.23;2.03;;;10.20;99.90;;;;;;4959292;29;20039;-79
2024/02/06 04:27:13;;;;;;;16.77;3.42;;;10.20;99.90;;;;;;4958553;29;20030;-79
2024/02/06 04:29:38;;;;;;;14.10;1.23;;;10.20;99.90;;;;;;4960170;29;20487;-79
2024/02/06 04:32:04;;;;;;;16.85;1.25;;;10.10;99.90;;;;;;4960269;29;20476;-79
2024/02/06 04:34:30;;;;;;;17.35;0.90;;;10.10;99.90;;;;;;4959842;29;20035;-80
2024/02/06 04:36:56;;;;;;;9.07;1.48;;;10.10;99.90;;;;;;4958843;28;20502;-79
2024/02/06 04:39:21;;;;;;;17.38;1.55;;;10.10;99.90;;;;;;4959024;29;20026;-79
2024/02/06 04:41:47;;;;;;;17.88;1.30;;;10.10;99.90;;;;;;4958571;29;20118;-80
2024/02/06 04:44:13;;;;;;;17.90;2.38;;;10.10;99.90;;;;;;4957670;29;20435;-79
2024/02/06 04:46:38;;;;;;;16.73;1.92;;;10.20;99.90;;;;;;4958318;29;20027;-79
2024/02/06 04:49:04;;;;;;;6.38;1.27;;;10.10;99.90;;;;;;4958684;29;20035;-79
2024/02/06 04:51:30;;;;;;;12.48;2.45;;;10.10;99.90;;;;;;4959135;29;20039;-79
2024/02/06 04:53:56;;;;;;;10.45;1.45;;;10.10;99.90;;;;;;4959071;29;20026;-79
2024/02/06 04:56:25;;;;;;;11.23;1.75;;;10.10;99.90;;;;;;4958744;29;20028;-79
2024/02/06 04:58:50;;;;;;;17.67;2.20;;;10.10;99.90;;;;;;4956741;28;20019;-80
2024/02/06 05:01:20;;;;;;;9.63;0.98;;;10.20;99.90;;;;;;4958694;29;20388;-79
2024/02/06 05:03:46;;;;;;;18.30;1.90;;;10.20;99.90;;;;;;4957055;29;20019;-79
2024/02/06 05:06:12;;;;;;;21.70;2.90;;;10.20;99.90;;;;;;4941361;29;20443;-80
2024/02/06 05:08:38;;;;;;;15.82;1.33;;;10.20;99.90;;;;;;4958560;29;20074;-79
2024/02/06 05:11:05;;;;;;;15.55;1.73;;;10.20;99.90;;;;;;4958707;29;20063;-79
2024/02/06 05:13:31;;;;;;;21.65;1.67;;;10.20;99.90;;;;;;4956530;29;20023;-80
2024/02/06 05:15:58;;;;;;;16.13;1.60;;;10.20;99.90;;;;;;4957649;29;20106;-79
2024/02/06 05:18:24;;;;;;;20.58;1.88;;;10.30;99.90;;;;;;4958672;29;20024;-79
2024/02/06 05:20:50;;;;;;;18.77;2.13;;;10.20;99.90;;;;;;4957547;29;20047;-79
2024/02/06 05:23:16;;;;;;;9.73;1.02;;;10.30;99.90;;;;;;4958902;29;20027;-79
2024/02/06 05:25:41;;;;;;;15.43;1.27;;;;;;;;;;4958104;29;20038;-79
2024/02/06 05:28:07;;;;;;;16.33;1.80;;;10.30;99.90;;;;;;4956789;29;20483;-79
2024/02/06 05:30:35;;;;;;;21.95;2.67;;;10.30;99.90;;;;;;4957886;29;20027;-79
2024/02/06 05:33:02;;;;;;;18.10;2.53;;;10.40;99.90;;;;;;4958049;29;20059;-79
2024/02/06 05:35:27;;;;;;;18.63;1.88;;;10.40;99.90;;;;;;4957855;29;20023;-79
2024/02/06 05:37:53;;;;;;;15.57;1.38;;;10.40;99.90;;;;;;4958088;29;20074;-79
2024/02/06 05:40:19;;;;;;;13.73;2.35;;;10.40;99.90;;;;;;4956907;29;20035;-80
2024/02/06 05:42:47;;;;;;;20.38;2.58;;;10.40;99.90;;;;;;4957619;29;20023;-80
2024/02/06 05:45:12;;;;;;;24.33;2.85;;;10.40;99.90;;;;;;4957616;28;20028;-79
2024/02/06 05:47:38;;;;;;;22.88;1.85;;;10.40;99.90;;;;;;4957205;29;20034;-79
2024/02/06 05:50:04;;;;;;;19.15;1.65;;;10.50;99.90;;;;;;4958314;29;20061;-81
2024/02/06 05:52:29;;;;;;;16.17;1.20;;;10.50;99.90;;;;;;4957946;29;20031;-80
2024/02/06 05:54:55;;;;;;;19.48;2.05;;;10.40;99.90;;;;;;4958496;29;20030;-81
2024/02/06 05:57:20;;;;;;;12.98;0.75;;;10.40;99.90;;;;;;4958773;29;20102;-81
2024/02/06 05:59:47;;;;;;;27.85;3.67;;;10.40;99.90;;;;;;4957785;29;20087;-81
2024/02/06 06:02:13;;;;;;;16.63;1.48;;;10.40;99.90;;;;;;4957631;29;20015;-80
2024/02/06 06:04:39;;;;;;;15.45;1.52;;;10.40;99.90;;;;;;4959394;29;20030;-81
2024/02/06 06:07:04;;;;;;;27.60;2.08;;;10.40;99.90;;;;;;4957928;29;20031;-79
2024/02/06 06:09:30;;;;;;;18.15;1.67;;;10.40;99.90;;;;;;4957980;29;20039;-80
2024/02/06 06:11:56;;;;;;;11.40;1.45;;;10.40;99.90;;;;;;4960725;29;20039;-80
2024/02/06 06:14:21;;;;;;;24.40;2.00;;;10.30;99.90;;;;;;4959302;28;20027;-79
2024/02/06 06:16:47;;;;;;;20.13;2.20;;;10.40;99.90;;;;;;4961769;29;20012;-80
2024/02/06 06:19:13;;;;;;;24.65;1.83;;;10.40;99.90;;;;;;4962769;29;20030;-80
2024/02/06 06:21:38;;;;;;;14.38;1.55;;;10.50;99.90;;;;;;4964056;29;20448;-79
2024/02/06 06:24:05;;;;;;;25.25;3.17;;;10.40;99.90;;;;;;4963917;29;20023;-80
2024/02/06 06:26:31;;;;;;;23.25;2.25;;;10.40;99.90;;;;;;4963660;28;20023;-80
2024/02/06 06:28:56;;;;;;;14.60;0.70;;;10.40;99.90;;;;;;4963977;29;20039;-80
2024/02/06 06:31:22;;;;;;;20.05;2.60;;;10.40;99.90;;;;;;4964712;29;20034;-80
2024/02/06 06:33:47;;;;;;;25.23;3.42;;;10.40;99.90;;;;;;4963724;29;20027;-79
2024/02/06 06:36:13;;;;;;;16.13;1.75;;;10.40;99.90;;;;;;4961301;29;20020;-79
2024/02/06 06:38:39;;;;;;;15.45;1.30;;;10.40;99.90;;;;;;4962995;29;20027;-80
2024/02/06 06:41:05;;;;;;;24.85;2.40;;;10.40;99.90;;;;;;4962482;29;20043;-80
2024/02/06 06:43:30;;;;;;;12.18;2.60;;;10.40;99.90;;;;;;4965334;29;20098;-80
2024/02/06 06:45:56;;;;;;;21.23;1.42;;;10.40;99.90;;;;;;4963721;29;20043;-80
2024/02/06 06:48:22;;;;;;;18.27;2.15;;;10.40;99.90;;;;;;4963373;29;20027;-79
2024/02/06 06:50:47;;;;;;;13.73;1.45;;;10.40;99.90;;;;;;4964620;29;20027;-80
2024/02/06 06:53:13;;;;;;;15.57;0.93;;;10.40;99.90;;;;;;4962833;29;20020;-81
2024/02/06 06:55:38;;;;;;;19.33;2.10;;;10.40;99.90;;;;;;4965344;29;20027;-80
2024/02/06 06:58:04;;;;;;;19.05;2.55;;;10.40;99.90;;;;;;4964963;29;20150;-80
2024/02/06 07:00:31;;;;;;;22.88;1.40;;;10.40;99.90;;;;;;4963438;29;20031;-79
2024/02/06 07:02:57;;;;;;;25.38;2.92;;;;;;;;;;4964303;29;20028;-80
2024/02/06 07:05:23;;;;;;;18.70;2.35;;;;;;;;;;4962145;29;20078;-80
2024/02/06 07:07:49;;;;;;;13.20;1.90;;;10.40;99.90;;;;;;4963104;29;20035;-80
2024/02/06 07:10:15;;;;;;;15.20;2.05;;;10.50;99.90;;;;;;4964351;29;20106;-80
2024/02/06 07:12:40;;;;;;;25.30;2.63;;;10.40;99.90;;;;;;4961829;29;20082;-79
2024/02/06 07:15:07;;;;;;;19.80;2.03;;;10.50;99.90;;;;;;4962730;29;20497;-79
2024/02/06 07:17:32;;;;;;;25.55;1.98;;;10.50;99.90;;;;;;4962469;28;20035;-80
2024/02/06 07:19:58;;;;;;;22.25;2.55;;;10.50;99.90;;;;;;4962718;29;20031;-80
2024/02/06 07:22:24;;;;;;;26.73;2.22;;;10.40;99.90;;;;;;4961848;29;20122;-80
2024/02/06 07:24:51;;;;;;;30.15;2.75;;;10.50;99.90;;;;;;4961495;28;20094;-80
2024/02/06 07:27:16;;;;;;;13.68;1.58;;;10.40;99.90;;;;;;4962396;29;20114;-80
2024/02/06 07:29:42;;;;;;;25.15;2.83;;;10.50;99.90;;;;;;4963434;29;20055;-80
2024/02/06 07:32:08;;;;;;;31.92;2.40;;;10.40;99.90;;;;;;4962459;29;20085;-80
2024/02/06 07:34:33;;;;;;;22.40;3.15;;;10.50;99.90;;;;;;4962552;29;20483;-80
2024/02/06 07:36:59;;;;;;;21.67;3.10;;;10.40;99.90;;;;;;4963203;29;20027;-80
2024/02/06 07:39:25;;;;;;;24.73;3.05;;;10.40;99.90;;;;;;4960943;28;20022;-80
2024/02/06 07:41:51;;;;;;;21.92;3.38;;;10.40;99.90;;;;;;4962223;29;20031;-80
2024/02/06 07:44:17;;;;;;;22.52;2.50;;;10.40;99.90;;;;;;4962017;28;20135;-79
2024/02/06 07:46:43;;;;;;;18.88;2.75;;;10.40;99.90;;;;;;4961437;29;20023;-80
2024/02/06 07:49:09;;;;;;;22.15;1.80;;;10.40;99.90;;;;;;4962514;29;20375;-80
2024/02/06 07:51:34;;;;;;;26.02;2.40;;;10.40;99.90;;;;;;4962526;29;20027;-80
2024/02/06 07:54:00;;;;;;;36.88;2.58;;;10.40;99.90;;;;;;4960736;29;20019;-80
2024/02/06 07:56:30;;;;;;;24.77;3.50;;;10.40;99.90;;;;;;4962155;29;20055;-80
2024/02/06 07:58:58;;;;;;;12.85;1.85;;;10.50;99.90;;;;;;4961278;28;20110;-79
2024/02/06 08:01:24;;;;;;;18.23;1.60;;;10.40;99.90;;;;;;4962310;29;20078;-79
2024/02/06 08:03:50;;;;;;;10.65;0.65;;;10.50;99.90;;;;;;4962171;29;20038;-79
2024/02/06 08:06:17;;;;;;;34.03;4.63;;;10.50;99.90;;;;;;4961588;29;20023;-80
2024/02/06 08:08:43;;;;;;;20.80;2.13;;;10.50;99.90;;;;;;4962026;29;20024;-79
2024/02/06 08:11:08;;;;;;;22.45;1.83;;;10.40;99.90;;;;;;4960921;29;20023;-80
2024/02/06 08:13:34;;;;;;;25.20;2.58;;;10.50;99.90;;;;;;4962446;29;20027;-79
2024/02/06 08:16:00;;;;;;;27.10;2.80;;;10.50;99.90;;;;;;4962585;29;20562;-80
2024/02/06 08:18:25;;;;;;;18.83;2.75;;;10.50;99.90;;;;;;4961449;28;20023;-79
2024/02/06 08:20:51;;;;;;;22.30;2.47;;;10.50;99.90;;;;;;4962181;29;20098;-79
2024/02/06 08:23:16;;;;;;;13.95;1.02;;;10.50;99.90;;;;;;4961578;29;20114;-79
2024/02/06 08:25:42;;;;;;;18.13;2.13;;;10.60;99.90;;;;;;4961736;29;20038;-80
2024/02/06 08:28:08;;;;;;;17.15;1.38;;;10.60;99.90;;;;;;4961970;29;20061;-79
2024/02/06 08:30:35;;;;;;;25.77;2.20;;;10.60;99.90;;;;;;4960176;29;20039;-79
2024/02/06 08:33:01;;;;;;;15.07;2.40;;;;;;;;;;4959379;29;20380;-79
2024/02/06 08:35:27;;;;;;;18.77;2.10;;;10.60;99.90;;;;;;4962541;28;20027;-79
2024/02/06 08:37:53;;;;;;;24.38;1.23;;;10.60;99.90;;;;;;4959977;28;20023;-79
2024/02/06 08:40:18;;;;;;;21.88;2.35;;;10.60;99.90;;;;;;4960798;29;20082;-79
2024/02/06 08:42:44;;;;;;;22.80;1.67;;;10.70;99.90;;;;;;4961086;29;20032;-79
2024/02/06 08:45:09;;;;;;;13.20;0.90;;;10.70;99.90;;;;;;4961558;29;20115;-79
2024/02/06 08:47:35;;;;;;;19.33;2.03;;;10.70;99.90;;;;;;4961703;29;20530;-79
2024/02/06 08:50:01;;;;;;;15.27;1.67;;;10.70;99.90;;;;;;4960857;29;20034;-79
2024/02/06 08:52:27;;;;;;;21.05;2.60;;;10.80;99.90;;;;;;4960901;29;20019;-79
2024/02/06 08:54:52;;;;;;;20.40;1.60;;;10.80;99.90;;;;;;4959790;29;20027;-79
2024/02/06 08:57:18;;;;;;;20.40;1.48;;;10.90;99.90;;;;;;4960207;29;20026;-79
2024/02/06 08:59:44;;;;;;;26.83;2.25;;;10.90;99.90;;;;;;4960301;28;20102;-79
2024/02/06 09:02:09;;;;;;;16.75;1.60;;;11.00;99.90;;;;;;4960753;29;20491;-79
2024/02/06 09:04:35;;;;;;;13.00;1.58;;;11.00;99.90;;;;;;4960386;29;20112;-79
2024/02/06 09:07:01;;;;;;;24.95;1.77;;;11.10;99.90;;;;;;4960529;28;20027;-79
2024/02/06 09:09:29;;;;;;;12.68;1.92;;;11.10;99.90;;;;;;4961762;29;20110;-79
2024/02/06 09:11:55;;;;;;;20.60;0.73;;;11.10;99.90;;;;;;4959824;29;20027;-79
2024/02/06 09:14:21;;;;;;;13.18;0.70;;;11.10;99.90;;;;;;4961236;29;20054;-79
2024/02/06 09:16:47;;;;;;;14.27;1.27;;;11.20;99.90;;;;;;4960660;29;20030;-79
2024/02/06 09:19:12;;;;;;;8.52;0.77;;;11.20;99.90;;;;;;4962773;29;20103;-79
2024/02/06 09:21:38;;;;;;;15.23;1.50;;;11.20;99.90;;;;;;4962256;29;20054;-79
2024/02/06 09:24:04;;;;;;;18.02;1.02;;;11.20;99.90;;;;;;4960416;29;20031;-79
2024/02/06 09:26:29;;;;;;;11.30;1.42;;;11.30;99.90;;;;;;4960894;29;20106;-80
2024/02/06 09:28:56;;;;;;;20.15;1.85;;;11.40;99.90;;;;;;4960563;29;20095;-79
2024/02/06 09:31:22;;;;;;;8.65;0.82;;;11.40;99.90;;;;;;4959819;29;20023;-79
2024/02/06 09:33:47;;;;;;;14.90;1.80;;;11.30;99.90;;;;;;4958590;28;20075;-79
2024/02/06 09:36:13;;;;;;;11.93;0.50;;;11.30;99.90;;;;;;4960158;29;20034;-79
2024/02/06 09:38:39;;;;;;;15.10;0.95;;;11.30;99.90;;;;;;4959273;29;20020;-79
2024/02/06 09:41:09;;;;;;;20.00;1.95;;;11.40;99.90;;;;;;4955334;29;20019;-78
2024/02/06 09:43:36;;;;;;;13.57;0.90;;;11.40;99.90;;;;;;4955470;29;20050;-78
2024/02/06 09:46:01;;;;;;;18.75;1.10;;;11.40;99.90;;;;;;4955155;29;20027;-79
2024/02/06 09:48:27;;;;;;;15.48;1.08;;;11.40;99.90;;;;;;4956171;28;20419;-78
2024/02/06 09:50:56;;;;;;;13.25;1.33;;;11.50;99.90;;;;;;4955700;29;20078;-78
2024/02/06 09:53:32;;;;;;;12.25;1.13;;;11.50;99.90;;;;;;4955902;29;20114;-78
2024/02/06 09:55:59;;;;;;;9.15;1.65;;;11.50;99.90;;;;;;4955449;29;20023;-79
2024/02/06 09:58:25;;;;;;;20.98;3.47;;;11.50;99.90;;;;;;4956699;29;20027;-79
2024/02/06 10:00:53;;;;;;;14.52;1.83;;;11.60;99.90;;;;;;4956989;28;20054;-78
2024/02/06 10:03:31;;;;;;;17.27;1.95;;;11.60;99.90;;;;;;4955142;29;20047;-78
2024/02/06 10:06:02;;;;;;;18.17;1.77;;;11.70;99.90;;;;;;4956397;29;20031;-78
2024/02/06 10:08:28;;;;;;;9.07;0.52;;;11.60;99.90;;;;;;4957289;29;20061;-78
2024/02/06 10:10:57;;;;;;;6.10;0.50;;;11.80;99.90;;;;;;4955167;29;20035;-78
2024/02/06 10:13:23;;;;;;;20.08;2.75;;;11.70;99.90;;;;;;4956199;29;20023;-78
2024/02/06 10:15:49;;;;;;;18.73;3.17;;;11.80;99.90;;;;;;4956440;29;20027;-78
2024/02/06 10:18:16;;;;;;;12.15;0.88;;;11.80;99.90;;;;;;4955426;29;20443;-78
2024/02/06 10:20:49;;;;;;;13.02;0.60;;;11.80;99.90;;;;;;4955721;29;20019;-78
2024/02/06 10:23:16;;;;;;;16.27;0.95;;;11.90;99.90;;;;;;4955733;29;20039;-78
2024/02/06 10:25:43;;;;;;;16.35;1.20;;;12.00;99.90;;;;;;4954967;29;20023;-80
2024/02/06 10:28:09;;;;;;;17.60;1.65;;;12.10;99.90;;;;;;4955495;29;20039;-78
2024/02/06 10:30:35;;;;;;;17.17;1.77;;;12.00;99.90;;;;;;4958006;29;20490;-79
2024/02/06 10:33:14;;;;;;;8.27;0.70;;;;;;;;;;4955616;29;20035;-78
2024/02/06 10:35:40;;;;;;;17.27;1.20;;;12.20;99.90;;;;;;4956757;28;20029;-79
2024/02/06 10:38:13;;;;;;;13.80;1.13;;;12.20;99.90;;;;;;4956514;29;20023;-78
2024/02/06 10:40:43;;;;;;;13.68;2.65;;;12.20;99.90;;;;;;4955827;29;20110;-78
2024/02/06 10:43:10;;;;;;;30.15;2.75;;;12.20;99.90;;;;;;4956199;29;20055;-78
2024/02/06 10:45:36;;;;;;;11.45;1.70;;;;;;;;;;4956457;29;20559;-78
2024/02/06 10:48:03;;;;;;;11.73;1.40;;;12.20;99.90;;;;;;4955096;29;20122;-79
2024/02/06 10:50:29;;;;;;;7.68;1.02;;;12.20;99.90;;;;;;4954871;29;20071;-78
2024/02/06 10:52:55;;;;;;;7.30;0.25;;;12.20;99.90;;;;;;4957307;29;20054;-80
2024/02/06 10:55:22;;;;;;;16.77;1.73;;;12.20;99.90;;;;;;4958261;29;20026;-79
2024/02/06 10:57:51;;;;;;;15.35;1.08;;;12.10;99.90;;;;;;4958205;29;20016;-78
2024/02/06 11:00:21;;;;;;;9.95;1.02;;;12.00;99.90;;;;;;4956753;28;20051;-80
2024/02/06 11:02:52;;;;;;;10.93;1.60;;;12.20;99.90;;;;;;4960111;29;20050;-78
2024/02/06 11:05:36;;;;;;;8.75;0.85;;;12.20;99.90;;;;;;4960989;28;20031;-79
2024/02/06 11:08:15;;;;;;;6.82;1.25;;;12.20;99.90;;;;;;4960303;29;20118;-78
2024/02/06 11:10:46;;;;;;;6.68;1.02;;;12.30;99.90;;;;;;4960144;29;20027;-79
2024/02/06 11:13:19;;;;;;;9.82;0.88;;;12.30;99.90;;;;;;4959254;29;20502;-79
2024/02/06 11:15:46;;;;;;;12.32;0.70;;;12.30;99.90;;;;;;4958018;29;20035;-78
2024/02/06 11:18:23;;;;;;;10.75;0.35;;;12.30;99.90;;;;;;4960025;29;20447;-79
2024/02/06 11:20:52;;;;;;;5.90;1.05;;;12.30;99.90;;;;;;4958018;29;20484;-79
2024/02/06 11:23:18;;;;;;;19.27;1.65;;;12.20;99.90;;;;;;4958333;29;20024;-78
2024/02/06 11:25:48;;;;;;;12.30;1.23;;;12.20;99.90;;;;;;4959070;29;20470;-79
2024/02/06 11:28:15;;;;;;;4.70;0.75;;;12.20;99.90;;;;;;4959773;29;20020;-79
2024/02/06 11:30:42;;;;;;;8.05;1.30;;;12.20;99.90;;;;;;4958827;29;20503;-78
2024/02/06 11:33:09;;;;;;;10.73;0.38;;;12.20;99.90;;;;;;4958773;29;20023;-78
2024/02/06 11:35:37;;;;;;;6.05;0.40;;;12.20;99.90;;;;;;4959704;29;20588;-78
2024/02/06 11:38:03;;;;;;;7.90;0.93;;;12.20;99.90;;;;;;4958717;29;20082;-78
2024/02/06 11:40:30;;;;;;;12.48;1.55;;;12.20;99.90;;;;;;4959506;29;20479;-78
2024/02/06 11:43:03;;;;;;;16.75;1.23;;;12.20;99.90;;;;;;4959216;29;20023;-78
2024/02/06 11:45:30;;;;;;;7.32;0.60;;;12.20;99.90;;;;;;4957639;29;20053;-79
2024/02/06 11:48:00;;;;;;;14.50;1.65;;;12.20;99.90;;;;;;4958578;29;20038;-79
2024/02/06 11:50:32;;;;;;;5.38;0.25;;;12.20;99.90;;;;;;4957834;28;20487;-79
2024/02/06 11:53:06;;;;;;;14.15;0.98;;;12.20;99.90;;;;;;4956764;29;20023;-79
2024/02/06 11:55:32;;;;;;;8.43;1.58;;;12.20;99.90;;;;;;4958239;29;20475;-79
2024/02/06 11:57:59;;;;;;;12.45;1.70;;;12.20;99.90;;;;;;4958642;29;20024;-78
2024/02/06 12:00:25;;;;;;;9.13;1.00;;;12.30;99.90;;;;;;4959951;29;20023;-79
2024/02/06 12:02:55;;;;;;;5.18;0.08;;;12.20;99.90;;;;;;4959117;29;20082;-79
2024/02/06 12:05:21;;;;;;;8.60;0.30;;;12.20;99.90;;;;;;4958298;29;20038;-79
2024/02/06 12:07:58;;;;;;;12.63;0.82;;;12.20;99.90;;;;;;4957498;28;20027;-79
2024/02/06 12:10:33;;;;;;;6.82;0.73;;;12.20;99.90;;;;;;4958422;29;20031;-78
2024/02/06 12:13:04;;;;;;;8.52;0.95;;;12.30;99.90;;;;;;4957689;28;20031;-78
2024/02/06 12:15:37;;;;;;;9.90;0.75;;;12.30;99.90;;;;;;4958992;29;20043;-78
2024/02/06 12:18:14;;;;;;;15.95;1.00;;;12.40;99.90;;;;;;4957580;29;20019;-79
2024/02/06 12:20:41;;;;;;;10.15;0.68;;;12.40;99.90;;;;;;4958872;29;20539;-79
2024/02/06 12:23:11;;;;;;;10.18;0.43;;;12.40;99.90;;;;;;4942751;29;20051;-79
2024/02/06 12:25:40;;;;;;;19.13;1.73;;;12.40;99.90;;;;;;4956819;29;20020;-79
2024/02/06 12:28:15;;;;;;;;;;;12.50;99.90;;;;;;4957759;29;20023;-79
2024/02/06 12:30:45;;;;;;;24.38;2.13;;;12.40;99.90;;;;;;4957259;29;19910;-78
2024/02/06 12:33:11;;;;;;;12.48;0.80;;;12.40;99.90;;;;;;4956395;29;20483;-78
2024/02/06 12:35:38;;;;;;;8.07;1.27;;;12.40;99.90;;;;;;4958812;29;20024;-78
2024/02/06 12:38:05;;;;;;;12.25;0.32;;;12.30;99.90;;;;;;4958684;29;20077;-79
2024/02/06 12:40:32;;;;;;;18.05;2.05;;;12.30;99.90;;;;;;4957154;28;20081;-78